createdAt,value
2022-12-05T00:02:33.833Z,39.95
2022-12-05T00:07:36.752Z,35.92
2022-12-05T00:12:40.719Z,35.47
2022-12-05T00:17:44.976Z,32.45
2022-12-05T00:22:48.107Z,35.10
2022-12-05T00:27:50.950Z,35.35
2022-12-05T00:32:55.078Z,34.47
2022-12-05T00:37:57.856Z,30.80
2022-12-05T00:43:00.683Z,31.80
2022-12-05T00:48:05.262Z,33.40
2022-12-05T00:53:08.055Z,32.50
2022-12-05T00:58:10.822Z,28.80
2022-12-05T01:03:15.149Z,30.33
2022-12-05T01:08:18.131Z,29.52
2022-12-05T01:13:20.965Z,33.20
2022-12-05T01:18:26.468Z,32.80
2022-12-05T01:23:29.258Z,28.67
2022-12-05T01:28:32.146Z,29.42
2022-12-05T01:33:36.980Z,28.83
2022-12-05T01:38:40.051Z,27.90
2022-12-05T01:43:58.052Z,29.63
2022-12-05T01:49:06.854Z,26.67
2022-12-05T01:54:11.325Z,29.23
2022-12-05T01:59:15.084Z,25.38
2022-12-05T02:04:19.340Z,26.45
2022-12-05T02:09:22.792Z,29.23
2022-12-05T02:14:38.434Z,28.73
2022-12-05T02:19:58.724Z,27.23
2022-12-05T02:25:37.051Z,29.45
2022-12-05T02:30:44.698Z,28.33
2022-12-05T02:35:56.340Z,28.40
2022-12-05T02:41:11.691Z,29.95
2022-12-05T02:46:19.943Z,32.58
2022-12-05T02:51:26.377Z,30.85
2022-12-05T02:56:33.819Z,31.50
2022-12-05T03:01:38.124Z,31.90
2022-12-05T03:06:44.097Z,31.23
2022-12-05T03:11:50.281Z,30.30
2022-12-05T03:17:00.068Z,31.50
2022-12-05T03:22:07.591Z,30.90
2022-12-05T03:27:18.713Z,27.63
2022-12-05T03:32:28.976Z,32.67
2022-12-05T03:43:11.757Z,35.88
2022-12-05T03:48:23.632Z,34.05
2022-12-05T03:53:29.954Z,36.53
2022-12-05T03:58:38.119Z,38.65
2022-12-05T04:03:46.464Z,38.10
2022-12-05T04:08:54.336Z,34.65
2022-12-05T04:14:01.129Z,35.97
2022-12-05T04:19:11.195Z,38.65
2022-12-05T04:24:49.071Z,40.03
2022-12-05T04:30:00.341Z,42.47
2022-12-05T04:35:12.317Z,38.80
2022-12-05T04:40:21.186Z,39.08
2022-12-05T04:45:26.801Z,41.03
2022-12-05T04:50:34.496Z,38.97
2022-12-05T04:55:41.065Z,40.10
2022-12-05T05:00:51.497Z,40.25
2022-12-05T05:06:01.771Z,38.72
2022-12-05T05:11:12.109Z,40.55
2022-12-05T05:16:19.285Z,39.85
2022-12-05T05:21:26.443Z,39.70
2022-12-05T05:26:30.419Z,41.65
2022-12-05T05:31:33.712Z,40.88
2022-12-05T05:36:39.154Z,39.38
2022-12-05T05:41:42.427Z,43.72
2022-12-05T05:46:45.404Z,39.65
2022-12-05T05:51:49.659Z,44.08
2022-12-05T05:56:52.734Z,44.20
2022-12-05T06:01:55.667Z,48.25
2022-12-05T06:07:00.418Z,45.60
2022-12-05T06:12:03.221Z,50.45
2022-12-05T06:17:06.120Z,55.65
2022-12-05T06:22:10.349Z,51.33
2022-12-05T06:27:13.237Z,53.25
2022-12-05T06:32:16.001Z,54.65
2022-12-05T06:37:20.209Z,52.40
2022-12-05T06:42:23.324Z,58.00
2022-12-05T06:47:26.277Z,58.25
2022-12-05T06:52:30.412Z,54.47
2022-12-05T06:57:33.531Z,52.55
2022-12-05T07:03:30.186Z,51.45
2022-12-05T07:08:48.500Z,54.70
2022-12-05T07:14:10.683Z,57.10
2022-12-05T07:26:13.081Z,66.57
2022-12-05T07:31:18.688Z,66.25
2022-12-05T07:36:23.610Z,70.72
2022-12-05T07:41:30.020Z,71.85
2022-12-05T07:46:33.699Z,70.20
2022-12-05T07:51:38.946Z,63.90
2022-12-05T07:56:47.956Z,50.75
2022-12-05T08:01:53.962Z,74.05
2022-12-05T08:06:56.891Z,49.72
2022-12-05T08:12:01.378Z,47.58
2022-12-05T08:17:07.100Z,48.60
2022-12-05T08:22:11.244Z,51.80
2022-12-05T08:27:15.895Z,40.28
2022-12-05T08:32:18.840Z,43.72
2022-12-05T08:37:21.772Z,41.33
2022-12-05T08:42:26.154Z,42.95
2022-12-05T08:47:29.875Z,46.17
2022-12-05T08:52:34.756Z,45.95
2022-12-05T08:57:39.268Z,46.22
2022-12-05T09:02:42.242Z,45.72
2022-12-05T09:07:45.427Z,48.92
2022-12-05T09:12:50.520Z,49.90
2022-12-05T09:18:06.556Z,55.75
2022-12-05T09:23:15.769Z,58.83
2022-12-05T09:28:28.077Z,50.25
2022-12-05T09:33:33.250Z,46.15
2022-12-05T09:38:42.466Z,46.15
2022-12-05T09:43:54.769Z,43.22
2022-12-05T09:49:00.222Z,40.55
2022-12-05T09:54:04.366Z,38.72
2022-12-05T09:59:20.541Z,46.33
2022-12-05T10:04:57.087Z,39.50
2022-12-05T10:10:40.895Z,38.65
2022-12-05T10:15:59.585Z,38.35
2022-12-05T10:27:23.539Z,32.55
2022-12-05T10:32:38.102Z,30.98
2022-12-05T10:38:12.234Z,29.92
2022-12-05T10:43:26.172Z,34.70
2022-12-05T10:48:42.473Z,37.10
2022-12-05T10:54:00.189Z,37.08
2022-12-05T11:04:46.749Z,34.38
2022-12-05T11:09:49.882Z,34.05
2022-12-05T11:15:11.877Z,35.17
2022-12-05T11:20:54.639Z,34.05
2022-12-05T11:31:44.361Z,34.63
2022-12-05T11:45:46.418Z,37.63
2022-12-05T11:52:20.772Z,32.40
2022-12-05T12:17:58.697Z,24.70
2022-12-05T13:04:33.477Z,21.52
2022-12-05T13:09:45.121Z,22.38
2022-12-05T13:14:56.583Z,23.25
2022-12-05T13:20:03.871Z,23.35
2022-12-05T13:25:08.441Z,21.15
2022-12-05T13:30:20.985Z,19.75
2022-12-05T13:42:19.366Z,21.98
2022-12-05T13:47:36.533Z,20.80
2022-12-05T13:53:03.410Z,16.67
2022-12-05T13:58:51.351Z,25.42
2022-12-05T14:03:59.657Z,21.52
2022-12-05T14:09:04.991Z,17.83
2022-12-05T14:14:27.836Z,19.45
2022-12-05T15:18:39.908Z,18.08
2022-12-05T15:23:45.670Z,16.65
2022-12-05T15:29:07.140Z,17.17
2022-12-05T15:34:22.287Z,15.30
2022-12-05T15:45:44.937Z,12.70
2022-12-05T15:56:59.176Z,15.45
2022-12-05T16:02:11.264Z,20.92
2022-12-05T16:07:16.664Z,17.98
2022-12-05T16:12:28.887Z,16.80
2022-12-05T16:17:43.769Z,16.55
2022-12-05T16:22:53.115Z,16.90
2022-12-05T16:28:01.944Z,16.25
2022-12-05T16:33:08.792Z,19.90
2022-12-05T16:38:16.283Z,16.83
2022-12-05T16:43:24.560Z,15.77
2022-12-05T16:48:29.428Z,18.45
2022-12-05T16:53:34.229Z,17.95
2022-12-05T16:58:37.024Z,20.42
2022-12-05T17:03:39.900Z,17.50
2022-12-05T17:08:44.054Z,16.60
2022-12-05T17:13:49.550Z,14.60
2022-12-05T17:18:52.586Z,16.80
2022-12-05T17:23:56.836Z,19.75
2022-12-05T17:28:59.793Z,16.40
2022-12-05T17:34:02.815Z,18.50
2022-12-05T17:39:08.828Z,16.17
2022-12-05T17:44:13.951Z,18.13
2022-12-05T17:49:17.877Z,15.40
2022-12-05T17:54:22.241Z,16.65
2022-12-05T17:59:25.092Z,15.65
2022-12-05T18:04:28.183Z,16.77
2022-12-05T18:09:32.908Z,17.25
2022-12-05T18:14:36.065Z,18.98
2022-12-05T18:19:39.637Z,17.75
2022-12-05T18:24:43.833Z,16.70
2022-12-05T18:29:48.589Z,19.25
2022-12-05T18:34:53.526Z,21.52
2022-12-05T18:39:57.833Z,22.67
2022-12-05T18:45:01.719Z,18.65
2022-12-05T18:50:05.465Z,17.20
2022-12-05T18:55:20.956Z,23.33
2022-12-05T19:00:31.625Z,22.77
2022-12-05T19:05:35.241Z,20.73
2022-12-05T19:10:39.446Z,20.67
2022-12-05T19:15:42.829Z,19.65
2022-12-05T19:21:21.028Z,21.20
2022-12-05T19:26:50.315Z,22.50
2022-12-05T19:31:53.422Z,26.92
2022-12-05T19:37:27.127Z,20.85
2022-12-05T19:42:39.524Z,23.42
2022-12-05T19:47:53.252Z,27.23
2022-12-05T19:53:20.635Z,23.85
2022-12-05T19:59:20.120Z,28.25
2022-12-05T20:11:36.421Z,22.58
2022-12-05T20:16:41.922Z,22.00
2022-12-05T20:22:07.636Z,25.27
2022-12-05T20:27:10.864Z,27.15
2022-12-05T20:32:18.685Z,26.67
2022-12-05T20:37:28.628Z,27.73
2022-12-05T20:42:46.636Z,26.73
2022-12-05T20:49:08.141Z,23.10
2022-12-05T20:54:27.980Z,25.08
2022-12-05T20:59:47.395Z,24.42
2022-12-05T21:05:55.685Z,28.35
2022-12-05T21:24:31.906Z,21.83
2022-12-05T21:41:53.618Z,25.52
2022-12-05T21:46:59.135Z,29.45
2022-12-05T21:52:03.109Z,26.67
2022-12-05T21:57:07.561Z,24.17
2022-12-05T22:02:11.126Z,25.73
2022-12-05T22:07:13.939Z,27.30
2022-12-05T22:12:18.270Z,25.65
2022-12-05T22:17:21.097Z,25.65
2022-12-05T22:22:24.061Z,28.40
2022-12-05T22:27:30.464Z,28.60
2022-12-05T22:32:33.428Z,30.08
2022-12-05T22:37:36.156Z,27.30
2022-12-05T22:42:40.324Z,26.42
2022-12-05T22:47:43.202Z,26.23
2022-12-05T22:52:45.957Z,26.92
2022-12-05T22:57:50.208Z,28.23
2022-12-05T23:02:54.040Z,26.60
2022-12-05T23:07:56.964Z,25.55
2022-12-05T23:13:01.278Z,28.65
2022-12-05T23:18:04.891Z,24.65
2022-12-05T23:23:07.774Z,29.83
2022-12-05T23:28:12.032Z,26.45
2022-12-05T23:33:14.977Z,30.75
2022-12-05T23:38:17.733Z,29.05
2022-12-05T23:43:21.873Z,33.30
2022-12-05T23:48:25.283Z,32.15
2022-12-05T23:53:29.154Z,31.85
2022-12-05T23:58:33.944Z,36.40
